createdAt,value
2017-07-19T00:00:36.172Z,17.03
2017-07-19T00:02:50.812Z,16.91
2017-07-19T00:03:36.223Z,17.01
2017-07-19T00:04:36.254Z,16.93
2017-07-19T00:05:35.978Z,16.96
2017-07-19T00:06:36.306Z,16.81
2017-07-19T00:07:36.337Z,16.89
2017-07-19T00:08:36.368Z,16.83
2017-07-19T00:09:36.371Z,16.85
2017-07-19T00:10:36.421Z,16.85
2017-07-19T00:11:36.425Z,16.73
2017-07-19T00:12:36.462Z,16.81
2017-07-19T00:13:36.482Z,16.76
2017-07-19T00:14:51.102Z,16.64
2017-07-19T00:15:36.230Z,16.67
2017-07-19T00:16:36.554Z,16.67
2017-07-19T00:17:36.591Z,16.7
2017-07-19T00:18:36.587Z,16.7
2017-07-19T00:19:36.635Z,16.63
2017-07-19T00:20:36.635Z,16.6
2017-07-19T00:21:36.680Z,16.58
2017-07-19T00:22:36.711Z,16.5
2017-07-19T00:23:36.731Z,16.53
2017-07-19T00:24:36.446Z,16.56
2017-07-19T00:25:36.766Z,16.6
2017-07-19T00:26:36.809Z,16.5
2017-07-19T00:27:36.824Z,16.52
2017-07-19T00:28:36.861Z,16.61
2017-07-19T00:29:36.865Z,16.53
2017-07-19T00:30:36.909Z,16.53
2017-07-19T00:31:36.922Z,16.53
2017-07-19T00:32:36.958Z,16.46
2017-07-19T00:33:36.960Z,16.57
2017-07-19T00:34:51.299Z,16.46
2017-07-19T00:35:37.013Z,16.48
2017-07-19T00:36:36.742Z,16.53
2017-07-19T00:37:37.057Z,16.48
2017-07-19T00:38:37.083Z,16.45
2017-07-19T00:39:37.124Z,16.56
2017-07-19T00:40:37.133Z,16.45
2017-07-19T00:41:37.173Z,16.45
2017-07-19T00:42:37.184Z,16.49
2017-07-19T00:43:36.958Z,16.41
2017-07-19T00:44:37.231Z,16.39
2017-07-19T00:45:37.255Z,16.41
2017-07-19T00:46:37.286Z,16.28
2017-07-19T00:48:37.389Z,16.38
2017-07-19T00:49:37.350Z,16.27
2017-07-19T00:50:51.987Z,16.23
2017-07-19T00:51:37.092Z,16.33
2017-07-19T00:52:37.448Z,16.27
2017-07-19T00:53:37.442Z,16.33
2017-07-19T00:54:37.483Z,16.31
2017-07-19T00:55:37.510Z,16.28
2017-07-19T00:56:37.537Z,16.28
2017-07-19T00:57:37.237Z,16.23
2017-07-19T00:58:37.582Z,16.27
2017-07-19T00:59:52.199Z,16.25
2017-07-19T01:00:52.225Z,16.27
2017-07-19T01:01:37.329Z,16.3
2017-07-19T01:02:52.269Z,16.24
2017-07-19T01:03:37.705Z,16.2
2017-07-19T01:04:52.320Z,16.09
2017-07-19T01:05:52.355Z,16.12
2017-07-19T01:06:52.370Z,16.31
2017-07-19T01:07:37.802Z,16.17
2017-07-19T01:08:37.822Z,16.2
2017-07-19T01:09:37.895Z,16.14
2017-07-19T01:10:37.854Z,16.14
2017-07-19T01:11:37.902Z,16.2
2017-07-19T01:12:37.609Z,16.24
2017-07-19T01:13:37.948Z,16.21
2017-07-19T01:14:52.617Z,16.2
2017-07-19T01:15:37.972Z,16.07
2017-07-19T01:16:38.022Z,16.11
2017-07-19T01:17:38.036Z,16.09
2017-07-19T01:18:38.065Z,16.08
2017-07-19T01:19:38.088Z,16.04
2017-07-19T01:20:38.126Z,16
2017-07-19T01:21:38.118Z,15.97
2017-07-19T01:22:52.751Z,16.01
2017-07-19T01:23:38.178Z,16
2017-07-19T01:24:38.194Z,15.96
2017-07-19T01:25:52.817Z,16.02
2017-07-19T01:27:38.273Z,16.08
2017-07-19T01:29:38.343Z,15.96
2017-07-19T01:31:38.065Z,16
2017-07-19T01:32:38.081Z,16.04
2017-07-19T01:33:38.429Z,15.94
2017-07-19T01:34:38.129Z,16
2017-07-19T01:35:52.761Z,15.86
2017-07-19T01:36:38.500Z,15.92
2017-07-19T01:37:53.110Z,15.83
2017-07-19T01:38:38.235Z,15.82
2017-07-19T01:39:38.573Z,15.87
2017-07-19T01:41:38.617Z,15.82
2017-07-19T01:42:38.637Z,15.78
2017-07-19T01:43:38.351Z,15.76
2017-07-19T01:44:38.383Z,15.75
2017-07-19T01:45:38.691Z,15.82
2017-07-19T01:46:38.744Z,15.76
2017-07-19T01:47:38.751Z,15.69
2017-07-19T01:48:38.783Z,15.69
2017-07-19T01:49:38.792Z,15.68
2017-07-19T01:50:38.820Z,15.74
2017-07-19T01:51:38.852Z,15.75
2017-07-19T01:52:38.885Z,15.68
2017-07-19T01:53:38.878Z,15.68
2017-07-19T01:54:38.928Z,15.68
2017-07-19T01:55:38.954Z,15.69
2017-07-19T01:56:39.005Z,15.74
2017-07-19T01:57:38.682Z,15.69
2017-07-19T01:58:39.035Z,15.69
2017-07-19T01:59:39.028Z,15.69
2017-07-19T02:00:39.064Z,15.71
2017-07-19T02:01:39.084Z,15.72
2017-07-19T02:03:53.758Z,15.64
2017-07-19T02:04:39.162Z,15.72
2017-07-19T02:05:39.194Z,15.65
2017-07-19T02:06:39.216Z,15.62
2017-07-19T02:07:39.235Z,15.6
2017-07-19T02:08:39.256Z,15.68
2017-07-19T02:09:53.884Z,15.75
2017-07-19T02:10:39.321Z,15.6
2017-07-19T02:11:39.324Z,15.56
2017-07-19T02:12:39.362Z,15.56
2017-07-19T02:13:39.373Z,15.6
2017-07-19T02:14:39.411Z,15.59
2017-07-19T02:15:54.030Z,15.57
2017-07-19T02:17:39.479Z,15.67
2017-07-19T02:18:39.499Z,15.59
2017-07-19T02:19:39.521Z,15.6
2017-07-19T02:20:39.236Z,15.6
2017-07-19T02:21:39.616Z,15.69
2017-07-19T02:22:39.603Z,15.59
2017-07-19T02:23:39.618Z,15.64
2017-07-19T02:24:39.631Z,15.69
2017-07-19T02:25:53.959Z,15.64
2017-07-19T02:26:39.686Z,15.6
2017-07-19T02:27:39.719Z,15.6
2017-07-19T02:28:54.327Z,15.67
2017-07-19T02:29:54.369Z,15.72
2017-07-19T02:30:39.778Z,15.64
2017-07-19T02:31:39.802Z,15.57
2017-07-19T02:32:54.452Z,15.6
2017-07-19T02:33:39.235Z,15.6
2017-07-19T02:34:39.888Z,15.57
2017-07-19T02:35:39.588Z,15.57
2017-07-19T02:36:39.933Z,15.57
2017-07-19T02:37:39.943Z,15.56
2017-07-19T02:38:39.990Z,15.53
2017-07-19T02:39:40.002Z,15.59
2017-07-19T02:40:40.028Z,15.53
2017-07-19T02:42:39.763Z,15.5
2017-07-19T02:43:40.101Z,15.53
2017-07-19T02:44:40.118Z,15.51
2017-07-19T02:45:40.144Z,15.54
2017-07-19T02:46:40.151Z,15.51
2017-07-19T02:47:40.200Z,15.49
2017-07-19T02:48:40.199Z,15.51
2017-07-19T02:50:54.860Z,15.53
2017-07-19T02:51:40.292Z,15.54
2017-07-19T02:52:39.992Z,15.53
2017-07-19T02:53:40.337Z,15.5
2017-07-19T02:54:40.368Z,15.57
2017-07-19T02:55:40.378Z,15.57
2017-07-19T02:56:40.398Z,15.51
2017-07-19T02:57:55.034Z,15.5
2017-07-19T02:58:40.452Z,15.46
2017-07-19T02:59:40.469Z,15.47
2017-07-19T03:00:40.506Z,15.49
2017-07-19T03:01:40.505Z,15.43
2017-07-19T03:02:40.246Z,15.47
2017-07-19T03:03:40.563Z,15.38
2017-07-19T03:04:40.297Z,15.43
2017-07-19T03:05:40.629Z,15.31
2017-07-19T03:06:40.633Z,15.44
2017-07-19T03:07:40.672Z,15.41
2017-07-19T03:08:40.684Z,15.35
2017-07-19T03:09:40.718Z,15.39
2017-07-19T03:10:40.731Z,15.47
2017-07-19T03:11:40.766Z,15.32
2017-07-19T03:12:55.393Z,15.44
2017-07-19T03:13:40.799Z,15.36
2017-07-19T03:14:40.821Z,15.35
2017-07-19T03:15:40.863Z,15.41
2017-07-19T03:16:40.879Z,15.38
2017-07-19T03:17:40.909Z,15.39
2017-07-19T03:18:40.922Z,15.41
2017-07-19T03:19:40.953Z,15.47
2017-07-19T03:20:40.971Z,15.43
2017-07-19T03:21:41.001Z,15.39
2017-07-19T03:22:41.018Z,15.39
2017-07-19T03:23:41.050Z,15.46
2017-07-19T03:24:55.665Z,15.43
2017-07-19T03:25:41.092Z,15.41
2017-07-19T03:26:41.124Z,15.38
2017-07-19T03:27:41.139Z,15.41
2017-07-19T03:28:41.163Z,15.43
2017-07-19T03:29:41.194Z,15.43
2017-07-19T03:30:41.212Z,15.39
2017-07-19T03:31:41.242Z,15.38
2017-07-19T03:32:41.261Z,15.41
2017-07-19T03:33:40.973Z,15.36
2017-07-19T03:34:40.677Z,15.44
2017-07-19T03:35:41.318Z,15.51
2017-07-19T03:36:41.356Z,15.43
2017-07-19T03:37:41.400Z,15.35
2017-07-19T03:38:41.748Z,15.43
2017-07-19T03:39:41.408Z,15.39
2017-07-19T03:40:41.440Z,15.44
2017-07-19T03:41:41.169Z,15.46
2017-07-19T03:42:41.496Z,15.38
2017-07-19T03:43:41.517Z,15.46
2017-07-19T03:44:55.827Z,15.44
2017-07-19T03:45:41.555Z,15.43
2017-07-19T03:46:41.589Z,15.41
2017-07-19T03:47:41.621Z,15.44
2017-07-19T03:48:41.646Z,15.5
2017-07-19T03:49:41.651Z,15.54
2017-07-19T03:50:41.683Z,15.59
2017-07-19T03:51:41.690Z,15.62
2017-07-19T03:52:41.738Z,15.69
2017-07-19T03:53:41.744Z,15.71
2017-07-19T03:54:41.823Z,15.86
2017-07-19T03:55:41.804Z,15.75
2017-07-19T03:56:41.827Z,15.78
2017-07-19T03:57:41.534Z,15.9
2017-07-19T03:58:41.855Z,15.87
2017-07-19T03:59:41.904Z,15.89
2017-07-19T04:00:56.521Z,15.84
2017-07-19T04:01:41.948Z,15.89
2017-07-19T04:02:41.967Z,15.89
2017-07-19T04:03:41.998Z,15.89
2017-07-19T04:04:41.397Z,15.9
2017-07-19T04:05:42.028Z,15.82
2017-07-19T04:06:42.066Z,15.93
2017-07-19T04:07:42.080Z,15.96
2017-07-19T04:08:42.110Z,15.94
2017-07-19T04:09:42.176Z,15.97
2017-07-19T04:10:42.153Z,16.02
2017-07-19T04:11:42.193Z,15.96
2017-07-19T04:12:42.200Z,15.97
2017-07-19T04:13:42.248Z,16.01
2017-07-19T04:14:42.251Z,16.04
2017-07-19T04:15:42.288Z,16.09
2017-07-19T04:16:56.900Z,16.05
2017-07-19T04:17:42.023Z,16.08
2017-07-19T04:18:42.360Z,16.21
2017-07-19T04:19:56.968Z,16.34
2017-07-19T04:20:42.407Z,16.5
2017-07-19T04:21:42.425Z,16.66
2017-07-19T04:22:42.458Z,16.78
2017-07-19T04:23:42.472Z,16.82
2017-07-19T04:24:57.098Z,16.83
2017-07-19T04:25:42.517Z,16.76
2017-07-19T04:26:42.534Z,16.64
2017-07-19T04:27:42.553Z,16.68
2017-07-19T04:28:42.580Z,16.63
2017-07-19T04:29:42.630Z,16.58
2017-07-19T04:30:42.650Z,16.52
2017-07-19T04:31:42.681Z,16.56
2017-07-19T04:32:57.282Z,16.82
2017-07-19T04:33:42.729Z,16.85
2017-07-19T04:34:42.743Z,16.96
2017-07-19T04:35:42.775Z,16.98
2017-07-19T04:36:42.785Z,17.03
2017-07-19T04:37:42.793Z,16.91
2017-07-19T04:39:42.867Z,16.96
2017-07-19T04:40:42.879Z,17.07
2017-07-19T04:41:42.916Z,17.07
2017-07-19T04:42:42.930Z,17.12
2017-07-19T04:44:42.982Z,17.25
2017-07-19T04:45:43.000Z,17.62
2017-07-19T04:46:43.030Z,17.92
2017-07-19T04:47:57.660Z,18.3
2017-07-19T04:48:43.087Z,18.72
2017-07-19T04:49:43.100Z,19.33
2017-07-19T04:51:57.742Z,20.99
2017-07-19T04:52:43.172Z,21.54
2017-07-19T04:53:43.223Z,22.35
2017-07-19T04:54:43.243Z,22.8
2017-07-19T04:55:43.272Z,23.27
2017-07-19T04:56:43.270Z,23.84
2017-07-19T04:57:43.315Z,24.18
2017-07-19T04:58:43.427Z,24.1
2017-07-19T04:59:43.072Z,24.34
2017-07-19T05:00:43.397Z,24.77
2017-07-19T05:02:57.744Z,25.24
2017-07-19T05:04:43.504Z,25.67
2017-07-19T05:05:43.546Z,25.62
2017-07-19T05:06:43.260Z,25.75
2017-07-19T05:07:43.298Z,26.18
2017-07-19T05:08:43.617Z,26.4
2017-07-19T05:09:43.670Z,26.6
2017-07-19T05:10:43.696Z,26.77
2017-07-19T05:11:43.738Z,26.97
2017-07-19T05:12:43.759Z,26.89
2017-07-19T05:13:43.790Z,27.29
2017-07-19T05:14:43.807Z,27.75
2017-07-19T05:15:43.859Z,28.29
2017-07-19T05:16:43.870Z,28.37
2017-07-19T05:17:43.920Z,28.41
2017-07-19T05:18:43.932Z,28.48
2017-07-19T05:19:58.583Z,28.51
2017-07-19T05:21:44.060Z,28.4
2017-07-19T05:22:44.088Z,28.59
2017-07-19T05:23:44.102Z,28.51
2017-07-19T05:24:44.144Z,28.67
2017-07-19T05:25:44.171Z,29.05
2017-07-19T05:26:58.815Z,29.36
2017-07-19T05:27:44.239Z,29.55
2017-07-19T05:28:43.972Z,29.76
2017-07-19T05:29:44.301Z,29.79
2017-07-19T05:30:44.338Z,29.3
2017-07-19T05:31:44.382Z,29.57
2017-07-19T05:32:44.434Z,29.68
2017-07-19T05:33:44.429Z,29.89
2017-07-19T05:34:44.476Z,30.47
2017-07-19T05:35:59.100Z,30.27
2017-07-19T05:36:44.555Z,30.29
2017-07-19T05:37:44.574Z,30.76
2017-07-19T05:38:44.314Z,30.86
2017-07-19T05:39:44.670Z,31.06
2017-07-19T05:40:59.277Z,31.02
2017-07-19T05:41:44.403Z,31.48
2017-07-19T05:42:44.735Z,31.21
2017-07-19T05:43:44.792Z,31.25
2017-07-19T05:44:44.819Z,31.41
2017-07-19T05:45:44.565Z,31.48
2017-07-19T05:46:44.888Z,31.5
2017-07-19T05:48:44.646Z,31.39
2017-07-19T05:49:44.680Z,31.54
2017-07-19T05:51:59.681Z,31.43
2017-07-19T05:52:45.119Z,31.72
2017-07-19T05:53:45.154Z,31.47
2017-07-19T05:54:45.181Z,31.44
2017-07-19T05:55:45.207Z,31.66
2017-07-19T05:56:44.942Z,31.57
2017-07-19T05:57:45.288Z,31.47
2017-07-19T05:58:45.015Z,31.62
2017-07-19T05:59:45.346Z,31.57
2017-07-19T06:00:59.997Z,31.99
2017-07-19T06:01:45.444Z,32.33
2017-07-19T06:02:45.466Z,32.77
2017-07-19T06:03:45.206Z,32.47
2017-07-19T06:04:45.524Z,32.78
2017-07-19T06:05:45.271Z,32.87
2017-07-19T06:06:45.604Z,32.84
2017-07-19T06:08:00.251Z,32.62
2017-07-19T06:08:45.679Z,32.52
2017-07-19T06:09:45.732Z,32.88
2017-07-19T06:10:45.770Z,32.96
2017-07-19T06:11:45.788Z,33.11
2017-07-19T06:12:45.839Z,32.25
2017-07-19T06:13:45.867Z,32
2017-07-19T06:14:45.909Z,31.99
2017-07-19T06:15:45.933Z,31.56
2017-07-19T06:16:45.990Z,31.8
2017-07-19T06:18:46.040Z,32.07
2017-07-19T06:19:45.788Z,31.85
2017-07-19T06:20:46.119Z,31.99
2017-07-19T06:21:45.863Z,32.33
2017-07-19T06:23:00.808Z,32.93
2017-07-19T06:23:46.242Z,32.99
2017-07-19T06:24:46.280Z,33.31
2017-07-19T06:25:46.308Z,32.79
2017-07-19T06:26:46.362Z,31.93
2017-07-19T06:27:46.397Z,32.04
2017-07-19T06:28:46.430Z,32.14
2017-07-19T06:29:46.453Z,32.3
2017-07-19T06:30:46.477Z,32.19
2017-07-19T06:31:46.537Z,31.89
2017-07-19T06:32:46.568Z,32.32
2017-07-19T06:33:46.611Z,32.67
2017-07-19T06:34:46.633Z,32.57
2017-07-19T06:36:46.741Z,33
2017-07-19T06:37:46.760Z,32.93
2017-07-19T06:38:46.794Z,32.72
2017-07-19T06:39:46.529Z,32.92
2017-07-19T06:41:01.486Z,33.04
2017-07-19T06:41:46.908Z,33.04
2017-07-19T06:42:46.944Z,33.39
2017-07-19T06:44:01.574Z,33.57
2017-07-19T06:44:47.030Z,33.28
2017-07-19T06:45:47.042Z,32.79
2017-07-19T06:46:46.794Z,32.82
2017-07-19T06:47:47.140Z,33.63
2017-07-19T06:48:47.157Z,33.66
2017-07-19T06:49:46.904Z,34.1
2017-07-19T06:50:47.259Z,34.65
2017-07-19T06:51:46.651Z,34.52
2017-07-19T06:52:47.328Z,34.47
2017-07-19T06:53:47.353Z,34.19
2017-07-19T06:55:01.999Z,33.86
2017-07-19T06:56:47.474Z,33.95
2017-07-19T06:57:47.210Z,34.19
2017-07-19T06:58:47.541Z,33.76
2017-07-19T06:59:47.592Z,33.63
2017-07-19T07:00:47.309Z,33.59
2017-07-19T07:01:47.670Z,33.07
2017-07-19T07:02:47.692Z,33.18
2017-07-19T07:04:47.790Z,32.96
2017-07-19T07:05:47.822Z,33.19
2017-07-19T07:06:47.861Z,33.01
2017-07-19T07:07:47.878Z,32.72
2017-07-19T07:08:47.938Z,32.48
2017-07-19T07:09:47.976Z,32.66
2017-07-19T07:11:02.306Z,33.32
2017-07-19T07:11:48.048Z,33.6
2017-07-19T07:12:48.085Z,33.66
2017-07-19T07:13:48.107Z,33.57
2017-07-19T07:14:48.151Z,33.57
2017-07-19T07:15:47.883Z,33.93
2017-07-19T07:16:48.244Z,34.58
2017-07-19T07:17:47.965Z,34.72
2017-07-19T07:18:48.314Z,34.24
2017-07-19T07:19:48.344Z,33.73
2017-07-19T07:20:48.395Z,33.31
2017-07-19T07:21:48.421Z,33.32
2017-07-19T07:22:48.159Z,33.71
2017-07-19T07:23:48.486Z,34
2017-07-19T07:24:48.543Z,33.88
2017-07-19T07:25:48.573Z,34.56
2017-07-19T07:27:02.912Z,34.31
2017-07-19T07:27:48.667Z,34.47
2017-07-19T07:29:03.288Z,34.8
2017-07-19T07:29:48.425Z,34.92
2017-07-19T07:31:03.364Z,35.31
2017-07-19T07:31:48.815Z,35.29
2017-07-19T07:32:48.840Z,35.06
2017-07-19T07:34:03.489Z,34.61
2017-07-19T07:34:48.926Z,34.15
2017-07-19T07:35:48.966Z,34.66
2017-07-19T07:36:49.014Z,34.21
2017-07-19T07:37:49.017Z,34.31
2017-07-19T07:38:49.080Z,33.79
2017-07-19T07:39:49.104Z,33.72
2017-07-19T07:40:48.854Z,32.63
2017-07-19T07:41:49.197Z,32.7
2017-07-19T07:43:03.826Z,33.11
2017-07-19T07:44:49.325Z,34.52
2017-07-19T07:45:49.341Z,35.02
2017-07-19T07:46:49.381Z,35.26
2017-07-19T07:47:49.406Z,35.44
2017-07-19T07:48:49.470Z,35.58
2017-07-19T07:49:49.501Z,35.55
2017-07-19T07:50:49.545Z,35.74
2017-07-19T07:52:49.602Z,36.19
2017-07-19T07:53:49.656Z,35.93
2017-07-19T07:54:49.676Z,35.94
2017-07-19T07:55:49.424Z,35.81
2017-07-19T07:56:49.450Z,35.63
2017-07-19T07:58:04.412Z,35.45
2017-07-19T07:58:49.845Z,35.43
2017-07-19T07:59:49.869Z,34.92
2017-07-19T08:00:49.910Z,35.18
2017-07-19T08:01:49.933Z,35.45
2017-07-19T08:02:49.990Z,35.48
2017-07-19T08:03:49.765Z,35.56
2017-07-19T08:04:50.081Z,35.48
2017-07-19T08:05:50.110Z,35.14
2017-07-19T08:06:50.131Z,35.34
2017-07-19T08:08:50.213Z,35.33
2017-07-19T08:09:50.253Z,35.06
2017-07-19T08:10:50.276Z,34.99
2017-07-19T08:11:50.337Z,34.92
2017-07-19T08:12:50.365Z,34.82
2017-07-19T08:13:50.412Z,35.11
2017-07-19T08:14:50.442Z,35.48
2017-07-19T08:15:50.495Z,35.55
2017-07-19T08:16:50.200Z,35.5
2017-07-19T08:17:50.564Z,35.45
2017-07-19T08:18:50.275Z,34.39
2017-07-19T08:20:05.230Z,34.37
2017-07-19T08:21:50.726Z,34.82
2017-07-19T08:22:50.448Z,35.41
2017-07-19T08:23:50.480Z,35.58
2017-07-19T08:24:50.838Z,35.48
2017-07-19T08:25:50.855Z,35.66
2017-07-19T08:26:50.896Z,35.6
2017-07-19T08:27:50.948Z,35.82
2017-07-19T08:28:50.978Z,35.25
2017-07-19T08:30:05.628Z,34.46
2017-07-19T08:30:51.054Z,33.6
2017-07-19T08:31:50.780Z,32.93
2017-07-19T08:32:51.117Z,33.23
2017-07-19T08:33:50.851Z,33.09
2017-07-19T08:34:51.203Z,33.56
2017-07-19T08:35:50.941Z,34.17
2017-07-19T08:37:51.311Z,34.43
2017-07-19T08:38:51.365Z,34.47
2017-07-19T08:40:05.994Z,34.81
2017-07-19T08:40:51.432Z,34.92
2017-07-19T08:41:51.471Z,34.92
2017-07-19T08:42:51.484Z,34.47
2017-07-19T08:43:51.524Z,34.17
2017-07-19T08:44:51.580Z,34.64
2017-07-19T08:46:06.225Z,34.62
2017-07-19T08:46:51.374Z,34.87
2017-07-19T08:47:51.696Z,34.61
2017-07-19T08:49:06.335Z,34.31
2017-07-19T08:49:51.764Z,34.66
2017-07-19T08:50:51.811Z,34.87
2017-07-19T08:51:51.840Z,35.11
2017-07-19T08:52:51.881Z,35.41
2017-07-19T08:53:51.893Z,35.48
2017-07-19T08:55:06.549Z,35.43
2017-07-19T08:56:06.585Z,35.55
2017-07-19T08:56:52.028Z,35.4
2017-07-19T08:57:52.082Z,34.85
2017-07-19T08:58:52.400Z,34.05
2017-07-19T08:59:52.125Z,33.79
2017-07-19T09:00:52.148Z,34.22
2017-07-19T09:02:52.228Z,35.26
2017-07-19T09:03:52.276Z,35.58
2017-07-19T09:04:52.318Z,35.81
2017-07-19T09:05:52.340Z,35.92
2017-07-19T09:06:52.382Z,36.12
2017-07-19T09:08:52.460Z,35.68
2017-07-19T09:09:52.513Z,35.99
2017-07-19T09:10:52.217Z,35.77
2017-07-19T09:11:52.571Z,35.58
2017-07-19T09:12:52.606Z,35.7
2017-07-19T09:13:52.641Z,35.81
2017-07-19T09:15:07.281Z,35.94
2017-07-19T09:15:52.412Z,36.01
2017-07-19T09:16:52.758Z,36.17
2017-07-19T09:18:07.393Z,36.32
2017-07-19T09:19:07.420Z,36.17
2017-07-19T09:20:52.582Z,35.48
2017-07-19T09:21:52.936Z,35.66
2017-07-19T09:22:52.978Z,36.28
2017-07-19T09:23:53.001Z,36.38
2017-07-19T09:24:53.037Z,35.63
2017-07-19T09:25:53.069Z,35.85
2017-07-19T09:26:53.140Z,35.5
2017-07-19T09:28:07.757Z,35.47
2017-07-19T09:29:07.792Z,35.47
2017-07-19T09:29:53.236Z,35.59
2017-07-19T09:30:53.269Z,35.74
2017-07-19T09:31:52.989Z,35.9
2017-07-19T09:33:07.928Z,36.59
2017-07-19T09:33:53.381Z,36.66
2017-07-19T09:34:53.390Z,36.78
2017-07-19T09:35:53.456Z,35.85
2017-07-19T09:36:53.467Z,36.28
2017-07-19T09:37:53.524Z,36.43
2017-07-19T09:38:53.244Z,36.34
2017-07-19T09:39:53.598Z,36.09
2017-07-19T09:40:53.638Z,36.05
2017-07-19T09:41:53.667Z,35.68
2017-07-19T09:43:08.295Z,35.48
2017-07-19T09:43:53.735Z,35.43
2017-07-19T09:44:53.759Z,35.45
2017-07-19T09:45:53.498Z,35.55
2017-07-19T09:47:53.869Z,35.68
2017-07-19T09:48:53.915Z,35.58
2017-07-19T09:49:53.940Z,35.85
2017-07-19T09:50:53.985Z,35.63
2017-07-19T09:51:54.019Z,35.53
2017-07-19T09:52:54.119Z,36.07
2017-07-19T09:54:54.131Z,36.51
2017-07-19T09:55:54.149Z,36.19
2017-07-19T09:56:54.195Z,35.81
2017-07-19T09:57:54.226Z,35.74
2017-07-19T09:58:54.279Z,35.6
2017-07-19T09:59:54.317Z,35.45
2017-07-19T10:01:54.380Z,35.71
2017-07-19T10:02:54.408Z,36.07
2017-07-19T10:03:54.451Z,35.97
2017-07-19T10:05:09.084Z,35.87
2017-07-19T10:05:54.506Z,35.74
2017-07-19T10:06:54.225Z,35.55
2017-07-19T10:07:54.591Z,34.97
2017-07-19T10:08:54.629Z,34.91
2017-07-19T10:09:54.356Z,34.75
2017-07-19T10:10:54.685Z,34.87
2017-07-19T10:11:54.727Z,34.92
2017-07-19T10:12:54.745Z,35.02
2017-07-19T10:15:09.427Z,34.62
2017-07-19T10:15:54.860Z,34.54
2017-07-19T10:16:54.593Z,34.92
2017-07-19T10:17:54.925Z,34.92
2017-07-19T10:19:54.987Z,34.85
2017-07-19T10:21:09.634Z,34.87
2017-07-19T10:21:55.070Z,34.82
2017-07-19T10:22:55.117Z,34.89
2017-07-19T10:23:55.140Z,34.64
2017-07-19T10:24:55.173Z,34.87
2017-07-19T10:26:09.817Z,34.88
2017-07-19T10:26:54.930Z,35.25
2017-07-19T10:27:55.302Z,35.33
2017-07-19T10:28:55.315Z,35.14
2017-07-19T10:29:55.051Z,35
2017-07-19T10:30:55.392Z,34.8
2017-07-19T10:31:55.103Z,34.16
2017-07-19T10:32:55.467Z,34
2017-07-19T10:34:10.087Z,33.53
2017-07-19T10:34:55.525Z,33.56
2017-07-19T10:37:10.188Z,32.82
2017-07-19T10:37:55.619Z,32.78
2017-07-19T10:38:55.367Z,32.59
2017-07-19T10:39:55.385Z,32.35
2017-07-19T10:40:55.731Z,31.95
2017-07-19T10:42:55.806Z,31.78
2017-07-19T10:44:55.568Z,32.25
2017-07-19T10:45:55.891Z,32.23
2017-07-19T10:46:55.938Z,32.32
2017-07-19T10:47:55.956Z,32.13
2017-07-19T10:50:56.063Z,32.3
2017-07-19T10:51:56.118Z,32.33
2017-07-19T10:53:56.175Z,32.18
2017-07-19T10:54:56.196Z,32.11
2017-07-19T10:55:56.241Z,32
2017-07-19T10:56:56.288Z,31.95
2017-07-19T10:57:56.307Z,31.61
2017-07-19T10:58:56.363Z,31.62
2017-07-19T10:59:56.383Z,31.32
2017-07-19T11:00:56.398Z,31.26
2017-07-19T11:01:56.457Z,31.12
2017-07-19T11:02:56.477Z,31.12
2017-07-19T11:03:56.532Z,31.28
2017-07-19T11:04:56.542Z,31.07
2017-07-19T11:05:56.582Z,31.02
2017-07-19T11:06:56.614Z,31.39
2017-07-19T11:08:11.254Z,31.29
2017-07-19T11:09:56.698Z,31.62
2017-07-19T11:10:56.442Z,31.43
2017-07-19T11:11:56.466Z,31.47
2017-07-19T11:12:56.492Z,31.34
2017-07-19T11:13:56.848Z,31.34
2017-07-19T11:14:56.882Z,31.16
2017-07-19T11:15:56.913Z,30.95
2017-07-19T11:16:56.925Z,30.86
2017-07-19T11:17:56.664Z,30.62
2017-07-19T11:18:56.998Z,30.72
2017-07-19T11:19:57.045Z,30.79
2017-07-19T11:20:57.056Z,30.65
2017-07-19T11:21:57.105Z,30.45
2017-07-19T11:22:56.832Z,30.54
2017-07-19T11:23:57.182Z,30.55
2017-07-19T11:24:57.209Z,30.45
2017-07-19T11:25:57.231Z,30.35
2017-07-19T11:26:57.274Z,30.53
2017-07-19T11:27:57.305Z,30.61
2017-07-19T11:28:57.320Z,30.82
2017-07-19T11:29:57.376Z,30.89
2017-07-19T11:30:57.401Z,31.02
2017-07-19T11:32:12.032Z,31.01
2017-07-19T11:32:57.478Z,31.06
2017-07-19T11:33:57.511Z,31.16
2017-07-19T11:34:57.529Z,31.34
2017-07-19T11:35:57.551Z,31.51
2017-07-19T11:36:57.592Z,31.23
2017-07-19T11:38:12.241Z,30.8
2017-07-19T11:38:57.352Z,30.8
2017-07-19T11:40:11.983Z,31.06
2017-07-19T11:41:57.757Z,31.16
2017-07-19T11:42:57.470Z,30.82
2017-07-19T11:43:57.516Z,30.8
2017-07-19T11:44:57.847Z,30.79
2017-07-19T11:46:12.490Z,30.58
2017-07-19T11:46:57.917Z,30.37
2017-07-19T11:47:57.652Z,30.34
2017-07-19T11:49:58.015Z,30.64
2017-07-19T11:50:58.053Z,30.83
2017-07-19T11:51:58.080Z,30.92
2017-07-19T11:52:58.103Z,31.09
2017-07-19T11:53:57.831Z,31.02
2017-07-19T11:56:12.812Z,31.19
2017-07-19T11:57:12.527Z,31.34
2017-07-19T11:57:58.279Z,31.44
2017-07-19T11:58:58.305Z,31.47
2017-07-19T11:59:58.012Z,31.34
2017-07-19T12:00:58.379Z,30.91
2017-07-19T12:01:58.384Z,30.62
2017-07-19T12:02:58.437Z,30.7
2017-07-19T12:03:58.448Z,30.83
2017-07-19T12:04:58.520Z,30.89
2017-07-19T12:05:58.513Z,31.01
2017-07-19T12:06:58.577Z,30.92
2017-07-19T12:07:58.579Z,31.21
2017-07-19T12:09:58.657Z,31.39
2017-07-19T12:10:58.689Z,31.48
2017-07-19T12:12:13.325Z,31.54
2017-07-19T12:12:58.733Z,31.69
2017-07-19T12:13:58.787Z,31.91
2017-07-19T12:14:58.817Z,31.73
2017-07-19T12:15:58.546Z,31.92
2017-07-19T12:17:58.916Z,32.04
2017-07-19T12:18:58.650Z,32.1
2017-07-19T12:19:58.973Z,32.19
2017-07-19T12:20:58.989Z,32.18
2017-07-19T12:21:59.044Z,32.19
2017-07-19T12:22:59.060Z,31.93
2017-07-19T12:23:59.094Z,31.86
2017-07-19T12:26:13.816Z,31.86
2017-07-19T12:26:59.204Z,31.78
2017-07-19T12:28:13.835Z,31.76
2017-07-19T12:28:58.964Z,31.68
2017-07-19T12:29:59.285Z,31.51
2017-07-19T12:30:59.334Z,31.53
2017-07-19T12:31:59.367Z,31.73
2017-07-19T12:32:59.396Z,31.72
2017-07-19T12:33:59.431Z,31.85
2017-07-19T12:34:59.466Z,31.92
2017-07-19T12:36:14.091Z,31.92
2017-07-19T12:37:59.562Z,31.89
2017-07-19T12:39:59.306Z,32.18
2017-07-19T12:40:59.645Z,32.29
2017-07-19T12:41:59.380Z,32.43
2017-07-19T12:43:14.316Z,32.33
2017-07-19T12:43:59.756Z,32.43
2017-07-19T12:44:59.472Z,32.33
2017-07-19T12:45:59.824Z,32.47
2017-07-19T12:46:59.821Z,32.47
2017-07-19T12:47:59.880Z,32.37
2017-07-19T12:48:59.908Z,32.29
2017-07-19T12:49:59.931Z,32.3
2017-07-19T12:50:59.667Z,32.32
2017-07-19T12:52:00.022Z,32.28
2017-07-19T12:53:00.034Z,31.92
2017-07-19T12:53:59.765Z,31.5
2017-07-19T12:55:00.093Z,31.31
2017-07-19T12:56:00.189Z,31.25
2017-07-19T12:57:00.159Z,31.09
2017-07-19T12:58:00.203Z,31.04
2017-07-19T12:59:00.218Z,31.12
2017-07-19T13:00:00.277Z,31.21
2017-07-19T13:01:00.298Z,31.06
2017-07-19T13:02:00.020Z,30.92
2017-07-19T13:04:00.387Z,30.98
2017-07-19T13:05:00.432Z,31.13
2017-07-19T13:06:00.465Z,31.06
2017-07-19T13:07:00.497Z,31.14
2017-07-19T13:08:00.513Z,31.28
2017-07-19T13:09:00.564Z,31.36
2017-07-19T13:10:00.589Z,31.07
2017-07-19T13:11:00.613Z,30.89
2017-07-19T13:13:00.684Z,30.77
2017-07-19T13:14:00.702Z,30.72
2017-07-19T13:15:15.352Z,30.91
2017-07-19T13:16:00.455Z,30.95
2017-07-19T13:17:00.815Z,31.04
2017-07-19T13:18:00.830Z,31.14
2017-07-19T13:19:00.878Z,31.26
2017-07-19T13:20:00.907Z,31.26
2017-07-19T13:21:00.936Z,31.28
2017-07-19T13:22:15.567Z,31.5
2017-07-19T13:23:01.000Z,31.47
2017-07-19T13:24:01.032Z,31.5
2017-07-19T13:25:01.046Z,31.51
2017-07-19T13:26:01.092Z,31.56
2017-07-19T13:27:01.105Z,31.62
2017-07-19T13:28:01.162Z,31.39
2017-07-19T13:29:00.884Z,31.53
2017-07-19T13:30:01.225Z,31.41
2017-07-19T13:31:15.857Z,31.02
2017-07-19T13:32:01.276Z,30.89
2017-07-19T13:33:01.319Z,30.86
2017-07-19T13:34:01.337Z,30.8
2017-07-19T13:35:01.391Z,30.82
2017-07-19T13:36:01.100Z,30.95
2017-07-19T13:37:01.143Z,31.04
2017-07-19T13:39:01.192Z,30.94
2017-07-19T13:40:16.141Z,31.02
2017-07-19T13:41:01.275Z,31.07
2017-07-19T13:42:01.600Z,30.82
2017-07-19T13:43:01.652Z,30.54
2017-07-19T13:44:01.652Z,30.53
2017-07-19T13:45:01.707Z,30.51
2017-07-19T13:46:01.720Z,30.61
2017-07-19T13:47:16.366Z,30.62
2017-07-19T13:48:01.799Z,30.58
2017-07-19T13:49:01.876Z,30.75